sensor_id;sensor_type;location;lat;lon;timestamp;P1;durP1;ratioP1;P2;durP2;ratioP2
54641;SDS011;40536;53.194;5.728;2023-02-28T00:00:23;22.17;;;20.55;;
54641;SDS011;40536;53.194;5.728;2023-02-28T00:02:49;22.45;;;20.85;;
54641;SDS011;40536;53.194;5.728;2023-02-28T00:05:16;22.30;;;20.55;;
54641;SDS011;40536;53.194;5.728;2023-02-28T00:07:44;22.20;;;20.38;;
54641;SDS011;40536;53.194;5.728;2023-02-28T00:10:11;21.65;;;20.08;;
54641;SDS011;40536;53.194;5.728;2023-02-28T00:12:38;23.48;;;21.42;;
54641;SDS011;40536;53.194;5.728;2023-02-28T00:15:05;22.60;;;21.15;;
54641;SDS011;40536;53.194;5.728;2023-02-28T00:17:31;21.63;;;20.02;;
54641;SDS011;40536;53.194;5.728;2023-02-28T00:19:57;21.08;;;19.75;;
54641;SDS011;40536;53.194;5.728;2023-02-28T00:22:35;21.80;;;20.00;;
54641;SDS011;40536;53.194;5.728;2023-02-28T00:25:02;21.55;;;19.65;;
54641;SDS011;40536;53.194;5.728;2023-02-28T00:27:28;21.25;;;19.13;;
54641;SDS011;40536;53.194;5.728;2023-02-28T00:29:54;20.45;;;18.80;;
54641;SDS011;40536;53.194;5.728;2023-02-28T00:32:20;22.70;;;21.05;;
54641;SDS011;40536;53.194;5.728;2023-02-28T00:34:45;20.00;;;18.55;;
54641;SDS011;40536;53.194;5.728;2023-02-28T00:37:11;19.70;;;18.30;;
54641;SDS011;40536;53.194;5.728;2023-02-28T00:39:37;18.85;;;17.35;;
54641;SDS011;40536;53.194;5.728;2023-02-28T00:42:03;18.92;;;17.40;;
54641;SDS011;40536;53.194;5.728;2023-02-28T00:44:30;19.40;;;17.95;;
54641;SDS011;40536;53.194;5.728;2023-02-28T00:46:56;19.63;;;18.02;;
54641;SDS011;40536;53.194;5.728;2023-02-28T00:49:23;20.85;;;19.13;;
54641;SDS011;40536;53.194;5.728;2023-02-28T00:51:48;21.13;;;19.67;;
54641;SDS011;40536;53.194;5.728;2023-02-28T00:54:15;22.75;;;21.15;;
54641;SDS011;40536;53.194;5.728;2023-02-28T00:56:42;21.90;;;20.30;;
54641;SDS011;40536;53.194;5.728;2023-02-28T00:59:08;22.13;;;20.33;;
54641;SDS011;40536;53.194;5.728;2023-02-28T01:01:34;20.67;;;19.15;;
54641;SDS011;40536;53.194;5.728;2023-02-28T01:03:59;18.88;;;17.67;;
54641;SDS011;40536;53.194;5.728;2023-02-28T01:06:25;20.98;;;19.42;;
54641;SDS011;40536;53.194;5.728;2023-02-28T01:08:51;21.88;;;19.92;;
54641;SDS011;40536;53.194;5.728;2023-02-28T01:11:17;21.20;;;19.58;;
54641;SDS011;40536;53.194;5.728;2023-02-28T01:13:44;20.73;;;18.95;;
54641;SDS011;40536;53.194;5.728;2023-02-28T01:16:11;20.80;;;18.75;;
54641;SDS011;40536;53.194;5.728;2023-02-28T01:18:37;18.95;;;17.65;;
54641;SDS011;40536;53.194;5.728;2023-02-28T01:21:04;21.98;;;20.40;;
54641;SDS011;40536;53.194;5.728;2023-02-28T01:23:34;21.88;;;20.27;;
54641;SDS011;40536;53.194;5.728;2023-02-28T01:26:18;21.55;;;19.50;;
54641;SDS011;40536;53.194;5.728;2023-02-28T01:28:45;20.80;;;19.10;;
54641;SDS011;40536;53.194;5.728;2023-02-28T01:31:12;19.08;;;17.50;;
54641;SDS011;40536;53.194;5.728;2023-02-28T01:33:38;20.40;;;18.90;;
54641;SDS011;40536;53.194;5.728;2023-02-28T01:36:09;20.38;;;18.63;;
54641;SDS011;40536;53.194;5.728;2023-02-28T01:38:37;19.33;;;17.70;;
54641;SDS011;40536;53.194;5.728;2023-02-28T01:41:04;18.63;;;17.20;;
54641;SDS011;40536;53.194;5.728;2023-02-28T01:43:32;19.42;;;17.92;;
54641;SDS011;40536;53.194;5.728;2023-02-28T01:46:07;19.50;;;18.13;;
54641;SDS011;40536;53.194;5.728;2023-02-28T01:48:34;21.08;;;19.38;;
54641;SDS011;40536;53.194;5.728;2023-02-28T01:51:05;22.42;;;20.77;;
54641;SDS011;40536;53.194;5.728;2023-02-28T01:53:41;22.60;;;20.88;;
54641;SDS011;40536;53.194;5.728;2023-02-28T01:56:11;23.13;;;21.20;;
54641;SDS011;40536;53.194;5.728;2023-02-28T01:58:46;21.83;;;19.73;;
54641;SDS011;40536;53.194;5.728;2023-02-28T02:01:15;19.92;;;18.52;;
54641;SDS011;40536;53.194;5.728;2023-02-28T02:03:47;19.77;;;18.58;;
54641;SDS011;40536;53.194;5.728;2023-02-28T02:06:20;20.85;;;18.98;;
54641;SDS011;40536;53.194;5.728;2023-02-28T02:09:06;18.65;;;17.17;;
54641;SDS011;40536;53.194;5.728;2023-02-28T02:11:31;18.55;;;17.35;;
54641;SDS011;40536;53.194;5.728;2023-02-28T02:17:23;21.55;;;19.80;;
54641;SDS011;40536;53.194;5.728;2023-02-28T02:34:24;17.92;;;16.58;;
54641;SDS011;40536;53.194;5.728;2023-02-28T02:42:16;17.73;;;16.52;;
54641;SDS011;40536;53.194;5.728;2023-02-28T02:45:08;18.38;;;17.00;;
54641;SDS011;40536;53.194;5.728;2023-02-28T02:47:39;18.08;;;16.70;;
54641;SDS011;40536;53.194;5.728;2023-02-28T02:50:07;18.88;;;17.50;;
54641;SDS011;40536;53.194;5.728;2023-02-28T02:52:38;18.83;;;17.52;;
54641;SDS011;40536;53.194;5.728;2023-02-28T02:55:08;17.95;;;16.45;;
54641;SDS011;40536;53.194;5.728;2023-02-28T02:57:41;17.98;;;16.67;;
54641;SDS011;40536;53.194;5.728;2023-02-28T03:00:12;18.58;;;17.02;;
54641;SDS011;40536;53.194;5.728;2023-02-28T03:02:41;16.85;;;15.68;;
54641;SDS011;40536;53.194;5.728;2023-02-28T03:05:18;17.17;;;15.98;;
54641;SDS011;40536;53.194;5.728;2023-02-28T03:07:53;14.63;;;13.38;;
54641;SDS011;40536;53.194;5.728;2023-02-28T03:10:33;14.23;;;12.95;;
54641;SDS011;40536;53.194;5.728;2023-02-28T03:13:08;14.07;;;12.73;;
54641;SDS011;40536;53.194;5.728;2023-02-28T03:21:25;14.38;;;13.18;;
54641;SDS011;40536;53.194;5.728;2023-02-28T03:24:21;13.98;;;12.85;;
54641;SDS011;40536;53.194;5.728;2023-02-28T03:26:46;14.90;;;13.50;;
54641;SDS011;40536;53.194;5.728;2023-02-28T03:29:23;14.65;;;13.20;;
54641;SDS011;40536;53.194;5.728;2023-02-28T03:31:59;14.02;;;12.93;;
54641;SDS011;40536;53.194;5.728;2023-02-28T03:34:28;13.90;;;12.60;;
54641;SDS011;40536;53.194;5.728;2023-02-28T03:36:59;14.52;;;13.25;;
54641;SDS011;40536;53.194;5.728;2023-02-28T03:39:35;13.52;;;12.32;;
54641;SDS011;40536;53.194;5.728;2023-02-28T03:42:23;15.57;;;13.15;;
54641;SDS011;40536;53.194;5.728;2023-02-28T03:44:54;13.45;;;12.40;;
54641;SDS011;40536;53.194;5.728;2023-02-28T03:47:34;13.23;;;11.95;;
54641;SDS011;40536;53.194;5.728;2023-02-28T03:50:22;13.82;;;12.02;;
54641;SDS011;40536;53.194;5.728;2023-02-28T03:53:11;13.55;;;12.30;;
54641;SDS011;40536;53.194;5.728;2023-02-28T03:55:50;13.40;;;12.20;;
54641;SDS011;40536;53.194;5.728;2023-02-28T04:00:55;15.18;;;13.70;;
54641;SDS011;40536;53.194;5.728;2023-02-28T04:03:32;18.00;;;13.00;;
54641;SDS011;40536;53.194;5.728;2023-02-28T04:06:00;13.68;;;12.50;;
54641;SDS011;40536;53.194;5.728;2023-02-28T04:08:25;13.68;;;12.32;;
54641;SDS011;40536;53.194;5.728;2023-02-28T04:10:54;14.40;;;13.00;;
54641;SDS011;40536;53.194;5.728;2023-02-28T04:13:24;13.55;;;12.35;;
54641;SDS011;40536;53.194;5.728;2023-02-28T04:15:50;13.95;;;12.65;;
54641;SDS011;40536;53.194;5.728;2023-02-28T04:18:16;14.00;;;12.90;;
54641;SDS011;40536;53.194;5.728;2023-02-28T04:20:41;13.63;;;12.38;;
54641;SDS011;40536;53.194;5.728;2023-02-28T04:23:07;13.88;;;12.68;;
54641;SDS011;40536;53.194;5.728;2023-02-28T04:25:33;13.52;;;12.32;;
54641;SDS011;40536;53.194;5.728;2023-02-28T04:27:58;13.05;;;11.95;;
54641;SDS011;40536;53.194;5.728;2023-02-28T04:30:24;13.40;;;12.45;;
54641;SDS011;40536;53.194;5.728;2023-02-28T04:32:49;14.38;;;13.13;;
54641;SDS011;40536;53.194;5.728;2023-02-28T04:35:16;15.93;;;14.05;;
54641;SDS011;40536;53.194;5.728;2023-02-28T04:37:42;16.10;;;14.90;;
54641;SDS011;40536;53.194;5.728;2023-02-28T04:40:07;16.45;;;15.20;;
54641;SDS011;40536;53.194;5.728;2023-02-28T04:42:33;17.10;;;15.65;;
54641;SDS011;40536;53.194;5.728;2023-02-28T04:45:04;18.88;;;17.30;;
54641;SDS011;40536;53.194;5.728;2023-02-28T04:47:30;17.92;;;16.48;;
54641;SDS011;40536;53.194;5.728;2023-02-28T04:49:56;18.42;;;17.02;;
54641;SDS011;40536;53.194;5.728;2023-02-28T04:52:21;17.45;;;15.98;;
54641;SDS011;40536;53.194;5.728;2023-02-28T04:54:47;17.98;;;16.63;;
54641;SDS011;40536;53.194;5.728;2023-02-28T04:57:13;16.48;;;15.35;;
54641;SDS011;40536;53.194;5.728;2023-02-28T04:59:39;16.58;;;15.32;;
54641;SDS011;40536;53.194;5.728;2023-02-28T05:02:04;16.10;;;14.90;;
54641;SDS011;40536;53.194;5.728;2023-02-28T05:04:34;17.40;;;16.00;;
54641;SDS011;40536;53.194;5.728;2023-02-28T05:07:01;17.42;;;16.00;;
54641;SDS011;40536;53.194;5.728;2023-02-28T05:09:26;17.25;;;15.95;;
54641;SDS011;40536;53.194;5.728;2023-02-28T05:11:53;16.27;;;14.80;;
54641;SDS011;40536;53.194;5.728;2023-02-28T05:14:19;16.40;;;15.00;;
54641;SDS011;40536;53.194;5.728;2023-02-28T05:16:45;17.20;;;15.68;;
54641;SDS011;40536;53.194;5.728;2023-02-28T05:19:10;16.80;;;15.60;;
54641;SDS011;40536;53.194;5.728;2023-02-28T05:21:40;17.88;;;16.35;;
54641;SDS011;40536;53.194;5.728;2023-02-28T05:24:12;17.50;;;16.13;;
54641;SDS011;40536;53.194;5.728;2023-02-28T05:26:39;17.30;;;15.80;;
54641;SDS011;40536;53.194;5.728;2023-02-28T05:29:06;17.33;;;15.88;;
54641;SDS011;40536;53.194;5.728;2023-02-28T05:31:32;17.70;;;15.80;;
54641;SDS011;40536;53.194;5.728;2023-02-28T05:33:58;18.23;;;16.63;;
54641;SDS011;40536;53.194;5.728;2023-02-28T05:36:24;18.33;;;16.90;;
54641;SDS011;40536;53.194;5.728;2023-02-28T05:38:50;17.60;;;16.00;;
54641;SDS011;40536;53.194;5.728;2023-02-28T05:41:17;16.63;;;15.20;;
54641;SDS011;40536;53.194;5.728;2023-02-28T05:43:45;18.30;;;16.95;;
54641;SDS011;40536;53.194;5.728;2023-02-28T05:46:11;19.50;;;17.83;;
54641;SDS011;40536;53.194;5.728;2023-02-28T05:48:38;18.40;;;16.90;;
54641;SDS011;40536;53.194;5.728;2023-02-28T05:51:05;20.38;;;18.08;;
54641;SDS011;40536;53.194;5.728;2023-02-28T05:53:32;18.98;;;17.58;;
54641;SDS011;40536;53.194;5.728;2023-02-28T05:55:58;17.40;;;16.00;;
54641;SDS011;40536;53.194;5.728;2023-02-28T05:58:24;16.50;;;15.25;;
54641;SDS011;40536;53.194;5.728;2023-02-28T06:00:54;17.40;;;16.00;;
54641;SDS011;40536;53.194;5.728;2023-02-28T06:03:20;17.73;;;16.55;;
54641;SDS011;40536;53.194;5.728;2023-02-28T06:05:45;17.98;;;16.73;;
54641;SDS011;40536;53.194;5.728;2023-02-28T06:08:11;18.27;;;16.73;;
54641;SDS011;40536;53.194;5.728;2023-02-28T06:10:37;17.77;;;16.20;;
54641;SDS011;40536;53.194;5.728;2023-02-28T06:13:03;18.05;;;16.52;;
54641;SDS011;40536;53.194;5.728;2023-02-28T06:15:29;18.40;;;17.10;;
54641;SDS011;40536;53.194;5.728;2023-02-28T06:17:55;19.30;;;17.10;;
54641;SDS011;40536;53.194;5.728;2023-02-28T06:20:21;18.08;;;16.50;;
54641;SDS011;40536;53.194;5.728;2023-02-28T06:22:48;18.77;;;17.08;;
54641;SDS011;40536;53.194;5.728;2023-02-28T06:25:15;18.08;;;16.73;;
54641;SDS011;40536;53.194;5.728;2023-02-28T06:27:42;17.52;;;16.10;;
54641;SDS011;40536;53.194;5.728;2023-02-28T06:30:08;17.42;;;16.23;;
54641;SDS011;40536;53.194;5.728;2023-02-28T06:32:35;16.95;;;15.65;;
54641;SDS011;40536;53.194;5.728;2023-02-28T06:35:01;17.77;;;16.45;;
54641;SDS011;40536;53.194;5.728;2023-02-28T06:37:27;18.45;;;16.88;;
54641;SDS011;40536;53.194;5.728;2023-02-28T06:39:53;19.80;;;17.95;;
54641;SDS011;40536;53.194;5.728;2023-02-28T06:42:21;18.08;;;16.58;;
54641;SDS011;40536;53.194;5.728;2023-02-28T06:44:51;16.52;;;15.15;;
54641;SDS011;40536;53.194;5.728;2023-02-28T06:47:20;16.23;;;14.95;;
54641;SDS011;40536;53.194;5.728;2023-02-28T06:49:46;15.98;;;14.68;;
54641;SDS011;40536;53.194;5.728;2023-02-28T06:52:12;16.20;;;14.82;;
54641;SDS011;40536;53.194;5.728;2023-02-28T06:54:38;16.58;;;15.27;;
54641;SDS011;40536;53.194;5.728;2023-02-28T06:57:03;16.77;;;15.38;;
54641;SDS011;40536;53.194;5.728;2023-02-28T06:59:29;16.50;;;15.10;;
54641;SDS011;40536;53.194;5.728;2023-02-28T07:01:55;15.75;;;14.45;;
54641;SDS011;40536;53.194;5.728;2023-02-28T07:04:21;18.98;;;17.42;;
54641;SDS011;40536;53.194;5.728;2023-02-28T07:06:47;17.00;;;15.48;;
54641;SDS011;40536;53.194;5.728;2023-02-28T07:09:13;16.45;;;15.02;;
54641;SDS011;40536;53.194;5.728;2023-02-28T07:11:39;17.67;;;16.20;;
54641;SDS011;40536;53.194;5.728;2023-02-28T07:14:06;18.38;;;16.80;;
54641;SDS011;40536;53.194;5.728;2023-02-28T07:16:32;18.33;;;16.23;;
54641;SDS011;40536;53.194;5.728;2023-02-28T07:18:57;18.92;;;17.10;;
54641;SDS011;40536;53.194;5.728;2023-02-28T07:21:23;18.23;;;16.45;;
54641;SDS011;40536;53.194;5.728;2023-02-28T07:23:49;21.05;;;17.92;;
54641;SDS011;40536;53.194;5.728;2023-02-28T07:26:15;20.15;;;18.05;;
54641;SDS011;40536;53.194;5.728;2023-02-28T07:28:43;19.80;;;17.85;;
54641;SDS011;40536;53.194;5.728;2023-02-28T07:31:10;19.95;;;18.05;;
54641;SDS011;40536;53.194;5.728;2023-02-28T07:33:37;20.08;;;17.92;;
54641;SDS011;40536;53.194;5.728;2023-02-28T07:36:04;21.33;;;19.00;;
54641;SDS011;40536;53.194;5.728;2023-02-28T07:38:33;20.50;;;18.52;;
54641;SDS011;40536;53.194;5.728;2023-02-28T07:41:00;23.33;;;21.33;;
54641;SDS011;40536;53.194;5.728;2023-02-28T07:43:29;23.77;;;21.48;;
54641;SDS011;40536;53.194;5.728;2023-02-28T07:46:04;23.42;;;21.17;;
54641;SDS011;40536;53.194;5.728;2023-02-28T07:48:32;22.23;;;20.35;;
54641;SDS011;40536;53.194;5.728;2023-02-28T07:50:59;23.42;;;21.02;;
54641;SDS011;40536;53.194;5.728;2023-02-28T07:53:25;21.10;;;19.20;;
54641;SDS011;40536;53.194;5.728;2023-02-28T07:55:55;21.42;;;19.58;;
54641;SDS011;40536;53.194;5.728;2023-02-28T07:58:26;23.38;;;21.15;;
54641;SDS011;40536;53.194;5.728;2023-02-28T08:00:52;24.10;;;22.05;;
54641;SDS011;40536;53.194;5.728;2023-02-28T08:03:19;22.58;;;20.67;;
54641;SDS011;40536;53.194;5.728;2023-02-28T08:05:46;22.98;;;20.98;;
54641;SDS011;40536;53.194;5.728;2023-02-28T08:08:13;24.63;;;22.25;;
54641;SDS011;40536;53.194;5.728;2023-02-28T08:10:39;24.38;;;22.00;;
54641;SDS011;40536;53.194;5.728;2023-02-28T08:13:05;24.10;;;21.27;;
54641;SDS011;40536;53.194;5.728;2023-02-28T08:15:31;27.48;;;24.52;;
54641;SDS011;40536;53.194;5.728;2023-02-28T08:17:57;27.23;;;24.58;;
54641;SDS011;40536;53.194;5.728;2023-02-28T08:20:23;24.60;;;22.25;;
54641;SDS011;40536;53.194;5.728;2023-02-28T08:22:49;26.67;;;24.08;;
54641;SDS011;40536;53.194;5.728;2023-02-28T08:25:15;26.38;;;23.88;;
54641;SDS011;40536;53.194;5.728;2023-02-28T08:27:41;25.40;;;22.77;;
54641;SDS011;40536;53.194;5.728;2023-02-28T08:30:07;26.80;;;24.10;;
54641;SDS011;40536;53.194;5.728;2023-02-28T08:32:35;25.77;;;23.23;;
54641;SDS011;40536;53.194;5.728;2023-02-28T08:35:01;26.00;;;23.65;;
54641;SDS011;40536;53.194;5.728;2023-02-28T08:37:28;26.63;;;23.92;;
54641;SDS011;40536;53.194;5.728;2023-02-28T08:39:53;27.17;;;24.48;;
54641;SDS011;40536;53.194;5.728;2023-02-28T08:42:19;26.13;;;23.35;;
54641;SDS011;40536;53.194;5.728;2023-02-28T08:44:45;25.40;;;22.70;;
54641;SDS011;40536;53.194;5.728;2023-02-28T08:47:10;26.52;;;23.75;;
54641;SDS011;40536;53.194;5.728;2023-02-28T08:49:36;26.45;;;23.65;;
54641;SDS011;40536;53.194;5.728;2023-02-28T08:52:02;25.90;;;23.17;;
54641;SDS011;40536;53.194;5.728;2023-02-28T08:54:28;26.25;;;23.35;;
54641;SDS011;40536;53.194;5.728;2023-02-28T08:56:56;27.88;;;24.92;;
54641;SDS011;40536;53.194;5.728;2023-02-28T08:59:22;29.25;;;24.95;;
54641;SDS011;40536;53.194;5.728;2023-02-28T09:01:47;27.67;;;24.42;;
54641;SDS011;40536;53.194;5.728;2023-02-28T09:04:13;27.10;;;24.33;;
54641;SDS011;40536;53.194;5.728;2023-02-28T09:06:39;27.80;;;24.80;;
54641;SDS011;40536;53.194;5.728;2023-02-28T09:09:04;26.10;;;23.40;;
54641;SDS011;40536;53.194;5.728;2023-02-28T09:11:32;25.15;;;22.58;;
54641;SDS011;40536;53.194;5.728;2023-02-28T09:13:59;26.00;;;23.33;;
54641;SDS011;40536;53.194;5.728;2023-02-28T09:16:28;24.85;;;21.88;;
54641;SDS011;40536;53.194;5.728;2023-02-28T09:18:55;24.92;;;22.17;;
54641;SDS011;40536;53.194;5.728;2023-02-28T09:21:21;23.17;;;20.77;;
54641;SDS011;40536;53.194;5.728;2023-02-28T09:23:48;23.55;;;21.10;;
54641;SDS011;40536;53.194;5.728;2023-02-28T09:26:19;23.23;;;20.73;;
54641;SDS011;40536;53.194;5.728;2023-02-28T09:28:49;23.58;;;21.10;;
54641;SDS011;40536;53.194;5.728;2023-02-28T09:31:16;23.17;;;20.80;;
54641;SDS011;40536;53.194;5.728;2023-02-28T09:33:48;23.15;;;20.88;;
54641;SDS011;40536;53.194;5.728;2023-02-28T09:36:15;23.13;;;20.45;;
54641;SDS011;40536;53.194;5.728;2023-02-28T09:38:41;23.48;;;21.02;;
54641;SDS011;40536;53.194;5.728;2023-02-28T09:41:17;22.55;;;20.13;;
54641;SDS011;40536;53.194;5.728;2023-02-28T09:43:47;21.38;;;19.17;;
54641;SDS011;40536;53.194;5.728;2023-02-28T09:49:10;20.25;;;17.98;;
54641;SDS011;40536;53.194;5.728;2023-02-28T09:51:43;19.17;;;17.17;;
54641;SDS011;40536;53.194;5.728;2023-02-28T09:54:22;18.92;;;17.02;;
54641;SDS011;40536;53.194;5.728;2023-02-28T09:56:50;18.55;;;16.73;;
54641;SDS011;40536;53.194;5.728;2023-02-28T10:07:48;19.25;;;17.38;;
54641;SDS011;40536;53.194;5.728;2023-02-28T10:10:40;17.60;;;15.77;;
54641;SDS011;40536;53.194;5.728;2023-02-28T10:13:31;18.25;;;16.35;;
54641;SDS011;40536;53.194;5.728;2023-02-28T10:18:43;16.50;;;14.77;;
54641;SDS011;40536;53.194;5.728;2023-02-28T10:21:21;17.17;;;15.38;;
54641;SDS011;40536;53.194;5.728;2023-02-28T10:24:07;16.15;;;14.30;;
54641;SDS011;40536;53.194;5.728;2023-02-28T10:26:37;16.63;;;15.00;;
54641;SDS011;40536;53.194;5.728;2023-02-28T10:29:03;16.08;;;14.48;;
54641;SDS011;40536;53.194;5.728;2023-02-28T10:31:28;16.40;;;14.55;;
54641;SDS011;40536;53.194;5.728;2023-02-28T10:33:54;16.45;;;14.85;;
54641;SDS011;40536;53.194;5.728;2023-02-28T10:36:20;17.05;;;15.32;;
54641;SDS011;40536;53.194;5.728;2023-02-28T10:38:46;14.73;;;13.23;;
54641;SDS011;40536;53.194;5.728;2023-02-28T10:41:14;14.32;;;12.88;;
54641;SDS011;40536;53.194;5.728;2023-02-28T10:44:12;17.23;;;13.65;;
54641;SDS011;40536;53.194;5.728;2023-02-28T10:46:48;15.27;;;13.77;;
54641;SDS011;40536;53.194;5.728;2023-02-28T10:49:20;14.65;;;13.23;;
54641;SDS011;40536;53.194;5.728;2023-02-28T10:51:49;14.82;;;13.43;;
54641;SDS011;40536;53.194;5.728;2023-02-28T10:54:19;16.75;;;15.18;;
54641;SDS011;40536;53.194;5.728;2023-02-28T10:59:44;16.52;;;15.02;;
54641;SDS011;40536;53.194;5.728;2023-02-28T11:05:26;12.63;;;11.32;;
54641;SDS011;40536;53.194;5.728;2023-02-28T11:08:01;12.35;;;10.70;;
54641;SDS011;40536;53.194;5.728;2023-02-28T11:10:31;13.48;;;11.18;;
54641;SDS011;40536;53.194;5.728;2023-02-28T11:13:00;11.93;;;10.68;;
54641;SDS011;40536;53.194;5.728;2023-02-28T11:15:28;11.73;;;10.63;;
54641;SDS011;40536;53.194;5.728;2023-02-28T11:20:51;11.13;;;10.02;;
54641;SDS011;40536;53.194;5.728;2023-02-28T11:23:19;10.30;;;9.27;;
54641;SDS011;40536;53.194;5.728;2023-02-28T11:25:50;9.77;;;8.77;;
54641;SDS011;40536;53.194;5.728;2023-02-28T11:28:32;10.02;;;9.07;;
54641;SDS011;40536;53.194;5.728;2023-02-28T11:31:20;10.05;;;9.05;;
54641;SDS011;40536;53.194;5.728;2023-02-28T11:33:53;10.20;;;9.20;;
54641;SDS011;40536;53.194;5.728;2023-02-28T11:36:24;11.30;;;10.25;;
54641;SDS011;40536;53.194;5.728;2023-02-28T11:38:52;10.60;;;9.60;;
54641;SDS011;40536;53.194;5.728;2023-02-28T11:41:22;12.80;;;10.05;;
54641;SDS011;40536;53.194;5.728;2023-02-28T11:44:16;11.77;;;10.60;;
54641;SDS011;40536;53.194;5.728;2023-02-28T11:46:59;12.80;;;11.25;;
54641;SDS011;40536;53.194;5.728;2023-02-28T11:54:59;15.23;;;14.02;;
54641;SDS011;40536;53.194;5.728;2023-02-28T12:28:34;11.50;;;10.60;;
54641;SDS011;40536;53.194;5.728;2023-02-28T12:31:06;12.05;;;11.02;;
54641;SDS011;40536;53.194;5.728;2023-02-28T12:33:53;10.30;;;9.40;;
54641;SDS011;40536;53.194;5.728;2023-02-28T12:36:26;10.90;;;9.85;;
54641;SDS011;40536;53.194;5.728;2023-02-28T12:38:58;12.30;;;11.23;;
54641;SDS011;40536;53.194;5.728;2023-02-28T12:41:40;13.43;;;12.43;;
54641;SDS011;40536;53.194;5.728;2023-02-28T12:44:14;15.30;;;14.13;;
54641;SDS011;40536;53.194;5.728;2023-02-28T12:46:47;17.23;;;15.93;;
54641;SDS011;40536;53.194;5.728;2023-02-28T12:49:16;18.25;;;16.95;;
54641;SDS011;40536;53.194;5.728;2023-02-28T12:51:52;18.27;;;16.95;;
54641;SDS011;40536;53.194;5.728;2023-02-28T12:54:26;18.73;;;17.48;;
54641;SDS011;40536;53.194;5.728;2023-02-28T12:57:11;17.35;;;16.15;;
54641;SDS011;40536;53.194;5.728;2023-02-28T12:59:53;16.83;;;15.63;;
54641;SDS011;40536;53.194;5.728;2023-02-28T13:05:07;16.83;;;15.57;;
54641;SDS011;40536;53.194;5.728;2023-02-28T13:10:42;17.35;;;16.15;;
54641;SDS011;40536;53.194;5.728;2023-02-28T13:13:17;17.13;;;16.02;;
54641;SDS011;40536;53.194;5.728;2023-02-28T13:15:57;16.25;;;15.05;;
54641;SDS011;40536;53.194;5.728;2023-02-28T13:18:32;15.77;;;14.77;;
54641;SDS011;40536;53.194;5.728;2023-02-28T13:21:04;15.60;;;14.35;;
54641;SDS011;40536;53.194;5.728;2023-02-28T13:26:12;16.23;;;15.02;;
54641;SDS011;40536;53.194;5.728;2023-02-28T13:31:16;13.27;;;12.25;;
54641;SDS011;40536;53.194;5.728;2023-02-28T13:44:36;15.15;;;14.15;;
54641;SDS011;40536;53.194;5.728;2023-02-28T13:47:16;17.00;;;15.90;;
54641;SDS011;40536;53.194;5.728;2023-02-28T13:49:37;17.48;;;15.70;;
54641;SDS011;40536;53.194;5.728;2023-02-28T14:05:13;17.42;;;16.13;;
54641;SDS011;40536;53.194;5.728;2023-02-28T14:07:46;17.88;;;16.67;;
54641;SDS011;40536;53.194;5.728;2023-02-28T14:15:55;17.40;;;16.00;;
54641;SDS011;40536;53.194;5.728;2023-02-28T14:20:52;17.50;;;16.30;;
54641;SDS011;40536;53.194;5.728;2023-02-28T14:26:29;17.75;;;16.55;;
54641;SDS011;40536;53.194;5.728;2023-02-28T14:29:11;17.65;;;16.20;;
54641;SDS011;40536;53.194;5.728;2023-02-28T14:32:02;15.80;;;14.70;;
54641;SDS011;40536;53.194;5.728;2023-02-28T14:35:03;15.82;;;14.63;;
54641;SDS011;40536;53.194;5.728;2023-02-28T14:37:45;17.42;;;16.13;;
54641;SDS011;40536;53.194;5.728;2023-02-28T14:40:21;18.13;;;16.83;;
54641;SDS011;40536;53.194;5.728;2023-02-28T14:42:55;17.02;;;15.73;;
54641;SDS011;40536;53.194;5.728;2023-02-28T14:45:26;14.98;;;13.80;;
54641;SDS011;40536;53.194;5.728;2023-02-28T14:47:55;15.07;;;13.90;;
54641;SDS011;40536;53.194;5.728;2023-02-28T14:50:24;17.48;;;15.98;;
54641;SDS011;40536;53.194;5.728;2023-02-28T14:52:54;17.30;;;15.93;;
54641;SDS011;40536;53.194;5.728;2023-02-28T14:55:24;15.45;;;14.13;;
54641;SDS011;40536;53.194;5.728;2023-02-28T14:58:05;15.18;;;14.05;;
54641;SDS011;40536;53.194;5.728;2023-02-28T15:00:32;18.27;;;16.83;;
54641;SDS011;40536;53.194;5.728;2023-02-28T15:03:00;17.35;;;16.13;;
54641;SDS011;40536;53.194;5.728;2023-02-28T15:05:42;16.13;;;15.03;;
54641;SDS011;40536;53.194;5.728;2023-02-28T15:08:16;16.55;;;15.32;;
54641;SDS011;40536;53.194;5.728;2023-02-28T15:10:43;15.48;;;14.38;;
54641;SDS011;40536;53.194;5.728;2023-02-28T15:18:31;16.25;;;14.98;;
54641;SDS011;40536;53.194;5.728;2023-02-28T15:21:02;16.42;;;15.23;;
54641;SDS011;40536;53.194;5.728;2023-02-28T15:23:32;15.90;;;14.80;;
54641;SDS011;40536;53.194;5.728;2023-02-28T15:26:01;19.98;;;18.58;;
54641;SDS011;40536;53.194;5.728;2023-02-28T15:28:27;19.55;;;18.10;;
54641;SDS011;40536;53.194;5.728;2023-02-28T15:30:55;18.90;;;17.33;;
54641;SDS011;40536;53.194;5.728;2023-02-28T15:33:26;21.73;;;16.55;;
54641;SDS011;40536;53.194;5.728;2023-02-28T15:36:03;16.42;;;15.13;;
54641;SDS011;40536;53.194;5.728;2023-02-28T15:38:32;16.42;;;15.02;;
54641;SDS011;40536;53.194;5.728;2023-02-28T15:41:00;17.00;;;15.65;;
54641;SDS011;40536;53.194;5.728;2023-02-28T15:43:27;17.75;;;16.15;;
54641;SDS011;40536;53.194;5.728;2023-02-28T15:46:09;16.95;;;15.40;;
54641;SDS011;40536;53.194;5.728;2023-02-28T15:48:38;16.27;;;14.90;;
54641;SDS011;40536;53.194;5.728;2023-02-28T15:51:29;15.98;;;14.57;;
54641;SDS011;40536;53.194;5.728;2023-02-28T15:54:05;15.63;;;14.20;;
54641;SDS011;40536;53.194;5.728;2023-02-28T15:56:52;15.88;;;14.48;;
54641;SDS011;40536;53.194;5.728;2023-02-28T15:59:21;15.27;;;13.88;;
54641;SDS011;40536;53.194;5.728;2023-02-28T16:07:23;13.48;;;12.18;;
54641;SDS011;40536;53.194;5.728;2023-02-28T16:09:49;13.27;;;11.90;;
54641;SDS011;40536;53.194;5.728;2023-02-28T16:12:15;13.25;;;11.95;;
54641;SDS011;40536;53.194;5.728;2023-02-28T16:14:41;13.68;;;12.25;;
54641;SDS011;40536;53.194;5.728;2023-02-28T16:17:12;13.55;;;12.30;;
54641;SDS011;40536;53.194;5.728;2023-02-28T16:19:44;13.88;;;12.48;;
54641;SDS011;40536;53.194;5.728;2023-02-28T16:22:10;14.35;;;12.85;;
54641;SDS011;40536;53.194;5.728;2023-02-28T16:24:35;13.90;;;12.60;;
54641;SDS011;40536;53.194;5.728;2023-02-28T16:27:01;14.05;;;12.75;;
54641;SDS011;40536;53.194;5.728;2023-02-28T16:29:29;13.93;;;12.63;;
54641;SDS011;40536;53.194;5.728;2023-02-28T16:31:58;14.55;;;13.25;;
54641;SDS011;40536;53.194;5.728;2023-02-28T16:34:24;14.48;;;13.18;;
54641;SDS011;40536;53.194;5.728;2023-02-28T16:36:50;14.85;;;13.55;;
54641;SDS011;40536;53.194;5.728;2023-02-28T16:39:16;15.35;;;13.85;;
54641;SDS011;40536;53.194;5.728;2023-02-28T16:41:43;15.85;;;14.45;;
54641;SDS011;40536;53.194;5.728;2023-02-28T16:44:12;16.90;;;15.30;;
54641;SDS011;40536;53.194;5.728;2023-02-28T16:47:04;17.02;;;15.43;;
54641;SDS011;40536;53.194;5.728;2023-02-28T16:49:30;17.67;;;16.27;;
54641;SDS011;40536;53.194;5.728;2023-02-28T16:51:56;17.92;;;16.42;;
54641;SDS011;40536;53.194;5.728;2023-02-28T16:54:22;17.67;;;16.17;;
54641;SDS011;40536;53.194;5.728;2023-02-28T16:56:48;19.38;;;17.88;;
54641;SDS011;40536;53.194;5.728;2023-02-28T16:59:15;20.23;;;18.40;;
54641;SDS011;40536;53.194;5.728;2023-02-28T17:01:52;20.00;;;18.23;;
54641;SDS011;40536;53.194;5.728;2023-02-28T17:04:19;19.90;;;18.30;;